Chocowinity, North Carolina
Current Conditions -  °F | °C
As of 3:55 AM on Wednesday 22 Oct 2014 (Local Time) from KOCW Reporting Station
Broken Clouds Broken Clouds  
Wind Chill: 55°   Ceiling: 6500
Heat Index: 55°   Visibility: 10mi
Dew Point: 46°   Wind: 5mph
Humidity: 73%   Direction: 300°WNW
Pressure: 29.86"   Gusts: NA
Location:  35.51°N, 77.1°W
Report Text: KOCW 220755Z AUTO 30004KT 10SM BKN065 BKN090 BKN120 13/08 A2986 RMK AO2 T01250078
Loading
Personal Weather Stations






























Interactive Weather Map
Tropical Storm Tracking
New forecast layout! Learn more

10-Day Weather Forecast

Advertisements
Track Severe Weather on mobile